Nearby METAR Reports

 

KGRB - Ashwaubenon, Wisconsin, USA
Distance from station: WSW 10mi, 16km
Updated: 09/20/2018 10:53pm
Clear
Clear
 Wind from S
Wind: S 14 mph , 22 km/h, Gust: 23 mph , 37 km/h
Temperature: 73°F , 23°C
Dew Point: 70°F , 21°C
Humidity: 89%
Barometer: 29.62 inHg , 1003 hPa
Clouds: Clear
Visibility: 9 miles , 14 km
2018/09/21 03:53 KGRB 210353Z 19012G20KT 9SM CLR 23/21 A2962 RMK AO2 SLP027 T02330211
KOCQ - Oconto, Wisconsin, USA
Distance from station: N 24mi, 39km
Updated: 09/20/2018 10:55pm
Mostly cloudy
Mostly cloudy
 Wind from S
Wind: S 6 mph , 9 km/h
Temperature: 70°F , 21°C
Dew Point: 68°F , 20°C
Humidity: 94%
Barometer: 29.60 inHg , 1002.4 hPa
Clouds: Mostly cloudy
Visibility: 7 miles , 11 km
Cloud details: Mostly cloudy 6000 ft
Mostly cloudy 7000 ft
2018/09/21 03:55 KOCQ 210355Z AUTO 17005KT 7SM BKN060 BKN070 21/20 A2960 RMK AO1 T02070200
KMTW - Manitowac Muni, Wisconsin, USA
Distance from station: SSE 31mi, 49km
Updated: 09/20/2018 10:56pm
Clear
Clear
 Wind from S
Wind: S 10 mph , 17 km/h
Temperature: 70°F , 21°C
Dew Point: 68°F , 20°C
Humidity: 94%
Barometer: 29.67 inHg , 1004.7 hPa
Clouds: Clear
Visibility: 7 miles , 11 km
2018/09/21 03:56 KMTW 210356Z AUTO 17009KT 7SM CLR 21/20 A2967 RMK AO2 SLP060 T02110200
 
KATW - Appleton/Outagam, Wisconsin, USA
Distance from station: WSW 33mi, 54km
Updated: 09/20/2018 10:55pm
Clear
Clear
 Wind from S
Wind: S 14 mph , 22 km/h
Temperature: 72°F , 22°C
Dew Point: 70°F , 21°C
Humidity: 94%
Barometer: 29.63 inHg , 1003.4 hPa
Clouds: Clear
Visibility: 10 miles , 16 km
2018/09/21 03:55 KATW 210355Z AUTO 19012KT 10SM CLR 22/21 A2963 RMK AO2
KSUE - Sturgeon Bay, Wisconsin, USA
Distance from station: NE 34mi, 55km
Updated: 09/20/2018 10:56pm
Overcast
Overcast
 Wind from S
Wind: S 20 mph , 31 km/h, Gust: 26 mph , 43 km/h
Temperature: 72°F , 22°C
Dew Point: 70°F , 21°C
Humidity: 94%
Barometer: 29.62 inHg , 1003 hPa
Clouds: Overcast
Visibility: 10 miles , 16 km
Cloud details: Mostly cloudy 700 ft
Overcast 6000 ft
2018/09/21 03:56 KSUE 210356Z AUTO 17017G23KT 10SM BKN007 OVC060 22/21 A2962 RMK AO2 SLP045 T02170206
KEZS - Shawano Muni, Wisconsin, USA
Distance from station: WNW 36mi, 58km
Updated: 09/20/2018 10:55pm
Mist, Overcast
Mist, Overcast
 Wind from S
Wind: S 7 mph , 11 km/h
Temperature: 72°F , 22°C
Dew Point: 70°F , 21°C
Humidity: 94%
Barometer: 29.59 inHg , 1002 hPa
Summary: Mist
Clouds: Overcast
Visibility: 4 miles , 6 km
Cloud details: Partly cloudy 400 ft
Partly cloudy 800 ft
Overcast 2000 ft
2018/09/21 03:55 KEZS 210355Z AUTO 19006KT 4SM BR SCT004 SCT008 OVC020 22/21 A2959 RMK AO2 LTG DSNT NW T02180210
 
KCLI - Clintonville, Wisconsin, USA
Distance from station: W 40mi, 64km
Updated: 09/20/2018 10:55pm
Mist, Mostly cloudy
Mist, Mostly cloudy
 Wind from S
Wind: S 10 mph , 17 km/h
Temperature: 70°F , 21°C
Dew Point: 68°F , 20°C
Humidity: 94%
Barometer: 29.61 inHg , 1002.7 hPa
Summary: Mist
Clouds: Mostly cloudy
Visibility: 3 miles , 5 km
Cloud details: Partly cloudy 400 ft
Mostly cloudy 5500 ft
2018/09/21 03:55 KCLI 210355Z AUTO 18009KT 3SM BR SCT004 BKN055 21/20 A2961 RMK AO2 T02100204
KMNM - Menominee, Michigan, USA
Distance from station: NNE 44mi, 72km
Updated: 09/20/2018 10:56pm
Partly cloudy
Partly cloudy
 Wind from S
Wind: S 12 mph , 19 km/h
Temperature: 70°F , 21°C
Dew Point: 68°F , 20°C
Humidity: 94%
Barometer: 29.60 inHg , 1002.4 hPa
Clouds: Partly cloudy
Visibility: 9 miles , 14 km
Cloud details: Partly cloudy 500 ft
Partly cloudy 6000 ft
2018/09/21 03:56 KMNM 210356Z AUTO 19010KT 9SM SCT005 SCT060 21/20 A2960 RMK AO2 SLP037 T02110200 $
KOSH - Oshkosh, Wisconsin, USA
Distance from station: SW 49mi, 78km
Updated: 09/20/2018 10:53pm
Clear
Clear
 Wind from S
Wind: S 16 mph , 26 km/h, Gust: 26 mph , 43 km/h
Temperature: 75°F , 24°C
Dew Point: 70°F , 21°C
Humidity: 83%
Barometer: 29.64 inHg , 1003.7 hPa
Clouds: Clear
Visibility: 9 miles , 14 km
2018/09/21 03:53 KOSH 210353Z AUTO 19014G23KT 9SM CLR 24/21 A2964 RMK AO2 SLP026 T02440211